createdAt,value
2017-01-23T00:00:28.128Z,977.65
2017-01-23T00:00:58.163Z,977.66
2017-01-23T00:01:28.198Z,977.63
2017-01-23T00:01:58.231Z,977.64
2017-01-23T00:02:28.266Z,977.59
2017-01-23T00:02:58.310Z,977.6
2017-01-23T00:03:28.334Z,977.64
2017-01-23T00:03:58.370Z,977.62
2017-01-23T00:04:28.405Z,977.61
2017-01-23T00:04:58.440Z,977.62
2017-01-23T00:05:28.473Z,977.58
2017-01-23T00:05:58.510Z,977.62
2017-01-23T00:06:28.542Z,977.57
2017-01-23T00:06:58.580Z,977.57
2017-01-23T00:07:28.613Z,977.62
2017-01-23T00:07:58.646Z,977.61
2017-01-23T00:08:28.681Z,977.61
2017-01-23T00:08:58.716Z,977.59
2017-01-23T00:09:28.752Z,977.63
2017-01-23T00:09:58.905Z,977.61
2017-01-23T00:10:28.930Z,977.6
2017-01-23T00:10:58.854Z,977.62
2017-01-23T00:11:28.889Z,977.59
2017-01-23T00:11:58.923Z,977.59
2017-01-23T00:12:28.959Z,977.6
2017-01-23T00:12:59.033Z,977.6
2017-01-23T00:13:29.026Z,977.59
2017-01-23T00:13:59.127Z,977.59
2017-01-23T00:14:29.202Z,977.59
2017-01-23T00:14:59.157Z,977.54
2017-01-23T00:15:29.180Z,977.55
2017-01-23T00:15:59.202Z,977.56
2017-01-23T00:16:29.236Z,977.56
2017-01-23T00:16:59.270Z,977.54
2017-01-23T00:17:29.304Z,977.54
2017-01-23T00:17:59.338Z,977.54
2017-01-23T00:18:29.373Z,977.53
2017-01-23T00:18:59.425Z,977.54
2017-01-23T00:19:29.444Z,977.55
2017-01-23T00:19:59.478Z,977.57
2017-01-23T00:20:29.512Z,977.56
2017-01-23T00:20:59.547Z,977.56
2017-01-23T00:21:29.582Z,977.56
2017-01-23T00:21:59.616Z,977.57
2017-01-23T00:22:29.651Z,977.57
2017-01-23T00:22:59.685Z,977.61
2017-01-23T00:23:29.721Z,977.62
2017-01-23T00:23:59.755Z,977.6
2017-01-23T00:24:29.787Z,977.58
2017-01-23T00:24:59.849Z,977.58
2017-01-23T00:25:29.857Z,977.6
2017-01-23T00:25:59.893Z,977.61
2017-01-23T00:26:29.926Z,977.64
2017-01-23T00:26:59.965Z,977.57
2017-01-23T00:27:29.995Z,977.61
2017-01-23T00:28:00.032Z,977.61
2017-01-23T00:28:30.065Z,977.59
2017-01-23T00:29:00.100Z,977.63
2017-01-23T00:29:30.146Z,977.61
2017-01-23T00:30:00.167Z,977.64
2017-01-23T00:30:30.203Z,977.61
2017-01-23T00:31:00.238Z,977.56
2017-01-23T00:31:30.273Z,977.6
2017-01-23T00:32:00.309Z,977.6
2017-01-23T00:32:30.343Z,977.64
2017-01-23T00:33:00.376Z,977.6
2017-01-23T00:33:30.409Z,977.59
2017-01-23T00:34:00.445Z,977.6
2017-01-23T00:34:30.567Z,977.6
2017-01-23T00:35:00.527Z,977.6
2017-01-23T00:35:30.596Z,977.62
2017-01-23T00:36:02.763Z,977.63
2017-01-23T00:36:35.474Z,977.59
2017-01-23T00:37:05.434Z,977.6
2017-01-23T00:37:30.686Z,977.58
2017-01-23T00:38:00.826Z,977.6
2017-01-23T00:38:30.816Z,977.59
2017-01-23T00:39:00.817Z,977.6
2017-01-23T00:39:31.458Z,977.58
2017-01-23T00:40:00.935Z,977.64
2017-01-23T00:40:30.895Z,977.65
2017-01-23T00:41:00.977Z,977.61
2017-01-23T00:41:30.994Z,977.62
2017-01-23T00:42:01.023Z,977.62
2017-01-23T00:42:31.070Z,977.65
2017-01-23T00:43:01.069Z,977.67
2017-01-23T00:43:33.265Z,977.65
2017-01-23T00:44:02.769Z,977.66
2017-01-23T00:44:31.322Z,977.65
2017-01-23T00:45:01.384Z,977.66
2017-01-23T00:45:31.284Z,977.67
2017-01-23T00:46:01.277Z,977.69
2017-01-23T00:46:31.310Z,977.65
2017-01-23T00:47:01.344Z,977.68
2017-01-23T00:47:31.399Z,977.68
2017-01-23T00:48:01.414Z,977.72
2017-01-23T00:48:31.447Z,977.69
2017-01-23T00:49:01.482Z,977.69
2017-01-23T00:49:31.519Z,977.68
2017-01-23T00:50:01.603Z,977.69
2017-01-23T00:50:31.597Z,977.68
2017-01-23T00:51:01.620Z,977.71
2017-01-23T00:51:31.657Z,977.72
2017-01-23T00:52:01.690Z,977.69
2017-01-23T00:52:31.768Z,977.71
2017-01-23T00:53:01.759Z,977.71
2017-01-23T00:53:31.792Z,977.76
2017-01-23T00:54:01.827Z,977.71
2017-01-23T00:54:31.865Z,977.72
2017-01-23T00:55:01.896Z,977.75
2017-01-23T00:55:31.931Z,977.73
2017-01-23T00:56:01.965Z,977.76
2017-01-23T00:56:31.999Z,977.72
2017-01-23T00:57:02.033Z,977.73
2017-01-23T00:57:32.069Z,977.75
2017-01-23T00:58:02.103Z,977.74
2017-01-23T00:58:32.137Z,977.77
2017-01-23T00:59:02.172Z,977.78
2017-01-23T00:59:32.207Z,977.74
2017-01-23T01:00:02.247Z,977.77
2017-01-23T01:00:32.275Z,977.78
2017-01-23T01:01:02.310Z,977.79
2017-01-23T01:01:32.345Z,977.77
2017-01-23T01:02:02.380Z,977.81
2017-01-23T01:02:32.413Z,977.82
2017-01-23T01:03:02.449Z,977.8
2017-01-23T01:03:32.483Z,977.82
2017-01-23T01:04:02.517Z,977.84
2017-01-23T01:04:32.552Z,977.81
2017-01-23T01:05:02.587Z,977.8
2017-01-23T01:05:32.622Z,977.84
2017-01-23T01:06:02.659Z,977.86
2017-01-23T01:06:32.692Z,977.86
2017-01-23T01:07:02.725Z,977.86
2017-01-23T01:07:32.759Z,977.86
2017-01-23T01:08:02.793Z,977.87
2017-01-23T01:08:32.828Z,977.84
2017-01-23T01:09:02.863Z,977.87
2017-01-23T01:09:32.899Z,977.85
2017-01-23T01:10:02.934Z,977.86
2017-01-23T01:10:32.972Z,977.86
2017-01-23T01:11:03.003Z,977.86
2017-01-23T01:11:33.038Z,977.86
2017-01-23T01:12:03.071Z,977.83
2017-01-23T01:12:33.103Z,977.85
2017-01-23T01:13:03.141Z,977.88
2017-01-23T01:13:33.173Z,977.84
2017-01-23T01:14:03.209Z,977.85
2017-01-23T01:14:33.243Z,977.88
2017-01-23T01:15:03.276Z,977.86
2017-01-23T01:15:33.312Z,977.88
2017-01-23T01:16:03.347Z,977.87
2017-01-23T01:16:33.380Z,977.89
2017-01-23T01:17:03.414Z,977.87
2017-01-23T01:17:33.449Z,977.88
2017-01-23T01:18:03.490Z,977.89
2017-01-23T01:18:33.518Z,977.86
2017-01-23T01:19:03.554Z,977.89
2017-01-23T01:19:33.587Z,977.85
2017-01-23T01:20:03.624Z,977.86
2017-01-23T01:20:33.657Z,977.86
2017-01-23T01:21:03.692Z,977.84
2017-01-23T01:21:33.726Z,977.88
2017-01-23T01:22:03.760Z,977.85
2017-01-23T01:22:33.797Z,977.86
2017-01-23T01:23:03.830Z,977.88
2017-01-23T01:23:33.865Z,977.88
2017-01-23T01:24:03.900Z,977.88
2017-01-23T01:24:33.935Z,977.89
2017-01-23T01:25:03.970Z,977.91
2017-01-23T01:25:34.005Z,977.91
2017-01-23T01:26:04.037Z,977.88
2017-01-23T01:26:34.072Z,977.89
2017-01-23T01:27:04.108Z,977.91
2017-01-23T01:27:34.143Z,977.92
2017-01-23T01:28:04.180Z,977.92
2017-01-23T01:28:34.214Z,977.94
2017-01-23T01:29:04.247Z,977.91
2017-01-23T01:29:34.281Z,977.92
2017-01-23T01:30:04.320Z,977.9
2017-01-23T01:30:34.351Z,977.93
2017-01-23T01:31:04.386Z,977.94
2017-01-23T01:31:34.421Z,977.96
2017-01-23T01:32:04.487Z,977.98
2017-01-23T01:32:34.490Z,977.92
2017-01-23T01:33:04.525Z,977.92
2017-01-23T01:33:34.561Z,977.92
2017-01-23T01:34:04.593Z,977.91
2017-01-23T01:34:34.628Z,977.92
2017-01-23T01:35:04.663Z,977.93
2017-01-23T01:35:34.699Z,977.93
2017-01-23T01:36:04.733Z,977.89
2017-01-23T01:36:34.768Z,977.9
2017-01-23T01:37:04.803Z,977.89
2017-01-23T01:37:34.837Z,977.86
2017-01-23T01:38:04.873Z,977.86
2017-01-23T01:38:34.906Z,977.88
2017-01-23T01:39:04.942Z,977.87
2017-01-23T01:39:34.977Z,977.83
2017-01-23T01:40:05.011Z,977.82
2017-01-23T01:40:35.046Z,977.81
2017-01-23T01:41:05.081Z,977.81
2017-01-23T01:41:35.115Z,977.83
2017-01-23T01:42:05.154Z,977.8
2017-01-23T01:42:35.184Z,977.8
2017-01-23T01:43:05.220Z,977.79
2017-01-23T01:43:35.257Z,977.83
2017-01-23T01:44:05.292Z,977.79
2017-01-23T01:44:35.324Z,977.8
2017-01-23T01:45:05.360Z,977.82
2017-01-23T01:45:35.426Z,977.8
2017-01-23T01:46:05.430Z,977.84
2017-01-23T01:46:35.463Z,977.84
2017-01-23T01:47:05.499Z,977.79
2017-01-23T01:47:35.535Z,977.8
2017-01-23T01:48:05.570Z,977.83
2017-01-23T01:48:35.602Z,977.83
2017-01-23T01:49:05.639Z,977.85
2017-01-23T01:49:35.674Z,977.84
2017-01-23T01:50:05.707Z,977.86
2017-01-23T01:50:35.768Z,977.86
2017-01-23T01:51:05.779Z,977.84
2017-01-23T01:51:35.813Z,977.84
2017-01-23T01:52:05.848Z,977.85
2017-01-23T01:52:35.884Z,977.81
2017-01-23T01:53:05.918Z,977.82
2017-01-23T01:53:35.955Z,977.8
2017-01-23T01:54:05.987Z,977.79
2017-01-23T01:54:36.021Z,977.79
2017-01-23T01:55:06.061Z,977.79
2017-01-23T01:55:36.093Z,977.8
2017-01-23T01:56:06.128Z,977.8
2017-01-23T01:56:36.162Z,977.82
2017-01-23T01:57:06.197Z,977.83
2017-01-23T01:57:36.231Z,977.82
2017-01-23T01:58:06.270Z,977.81
2017-01-23T01:58:36.304Z,977.81
2017-01-23T01:59:06.336Z,977.82
2017-01-23T01:59:36.371Z,977.83
2017-01-23T02:00:06.408Z,977.79
2017-01-23T02:00:36.441Z,977.79
2017-01-23T02:01:06.476Z,977.78
2017-01-23T02:01:36.512Z,977.77
2017-01-23T02:02:06.545Z,977.8
2017-01-23T02:02:36.582Z,977.77
2017-01-23T02:03:06.615Z,977.77
2017-01-23T02:03:36.654Z,977.77
2017-01-23T02:04:06.686Z,977.78
2017-01-23T02:04:36.727Z,977.83
2017-01-23T02:05:06.756Z,977.82
2017-01-23T02:05:36.798Z,977.81
2017-01-23T02:06:06.827Z,977.81
2017-01-23T02:06:36.861Z,977.75
2017-01-23T02:07:06.895Z,977.82
2017-01-23T02:07:36.930Z,977.82
2017-01-23T02:08:06.964Z,977.8
2017-01-23T02:08:37.000Z,977.75
2017-01-23T02:09:07.036Z,977.79
2017-01-23T02:09:37.070Z,977.82
2017-01-23T02:10:07.105Z,977.79
2017-01-23T02:10:37.140Z,977.75
2017-01-23T02:11:07.176Z,977.77
2017-01-23T02:11:37.211Z,977.79
2017-01-23T02:12:07.246Z,977.79
2017-01-23T02:12:37.285Z,977.76
2017-01-23T02:13:07.317Z,977.78
2017-01-23T02:13:37.352Z,977.8
2017-01-23T02:14:07.385Z,977.78
2017-01-23T02:14:37.421Z,977.78
2017-01-23T02:15:07.457Z,977.77
2017-01-23T02:15:37.491Z,977.77
2017-01-23T02:16:07.525Z,977.77
2017-01-23T02:16:37.560Z,977.78
2017-01-23T02:17:07.599Z,977.78
2017-01-23T02:17:37.631Z,977.78
2017-01-23T02:18:07.666Z,977.79
2017-01-23T02:18:37.701Z,977.8
2017-01-23T02:19:07.736Z,977.81
2017-01-23T02:19:37.774Z,977.81
2017-01-23T02:20:07.809Z,977.79
2017-01-23T02:20:37.842Z,977.82
2017-01-23T02:21:07.876Z,977.79
2017-01-23T02:21:37.913Z,977.79
2017-01-23T02:22:07.947Z,977.81
2017-01-23T02:22:37.983Z,977.86
2017-01-23T02:23:08.019Z,977.81
2017-01-23T02:23:38.064Z,977.81
2017-01-23T02:24:08.087Z,977.8
2017-01-23T02:24:38.122Z,977.8
2017-01-23T02:25:08.163Z,977.79
2017-01-23T02:25:38.193Z,977.78
2017-01-23T02:26:08.228Z,977.76
2017-01-23T02:26:38.261Z,977.77
2017-01-23T02:27:08.309Z,977.76
2017-01-23T02:27:38.333Z,977.74
2017-01-23T02:28:08.369Z,977.74
2017-01-23T02:28:38.403Z,977.7
2017-01-23T02:29:08.462Z,977.7
2017-01-23T02:29:38.472Z,977.73
2017-01-23T02:30:08.508Z,977.72
2017-01-23T02:30:38.545Z,977.75
2017-01-23T02:31:08.578Z,977.74
2017-01-23T02:31:38.612Z,977.75
2017-01-23T02:32:08.648Z,977.78
2017-01-23T02:32:38.685Z,977.75
2017-01-23T02:33:08.719Z,977.75
2017-01-23T02:33:38.753Z,977.75
2017-01-23T02:34:08.789Z,977.75
2017-01-23T02:34:38.824Z,977.74
2017-01-23T02:35:08.857Z,977.75
2017-01-23T02:35:38.893Z,977.76
2017-01-23T02:36:08.929Z,977.74
2017-01-23T02:36:38.966Z,977.73
2017-01-23T02:37:09.001Z,977.75
2017-01-23T02:37:39.034Z,977.71
2017-01-23T02:38:09.071Z,977.71
2017-01-23T02:38:39.107Z,977.72
2017-01-23T02:39:09.140Z,977.73
2017-01-23T02:39:39.175Z,977.74
2017-01-23T02:40:09.210Z,977.73
2017-01-23T02:40:39.245Z,977.7
2017-01-23T02:41:09.286Z,977.72
2017-01-23T02:41:39.315Z,977.69
2017-01-23T02:42:09.352Z,977.7
2017-01-23T02:42:39.386Z,977.71
2017-01-23T02:43:09.422Z,977.71
2017-01-23T02:43:39.458Z,977.69
2017-01-23T02:44:09.492Z,977.66
2017-01-23T02:44:39.525Z,977.68
2017-01-23T02:45:09.561Z,977.64
2017-01-23T02:45:39.596Z,977.67
2017-01-23T02:46:09.631Z,977.65
2017-01-23T02:46:39.667Z,977.65
2017-01-23T02:47:09.701Z,977.64
2017-01-23T02:47:39.743Z,977.65
2017-01-23T02:48:09.772Z,977.64
2017-01-23T02:48:39.808Z,977.64
2017-01-23T02:49:09.843Z,977.59
2017-01-23T02:49:39.879Z,977.64
2017-01-23T02:50:09.914Z,977.62
2017-01-23T02:50:39.949Z,977.61
2017-01-23T02:51:09.986Z,977.58
2017-01-23T02:51:40.019Z,977.61
2017-01-23T02:52:10.055Z,977.6
2017-01-23T02:52:40.117Z,977.59
2017-01-23T02:53:10.125Z,977.59
2017-01-23T02:53:40.177Z,977.58
2017-01-23T02:54:10.196Z,977.56
2017-01-23T02:54:40.248Z,977.59
2017-01-23T02:55:10.285Z,977.6
2017-01-23T02:55:40.311Z,977.58
2017-01-23T02:56:10.337Z,977.59
2017-01-23T02:56:40.372Z,977.61
2017-01-23T02:57:10.410Z,977.61
2017-01-23T02:57:40.454Z,977.6
2017-01-23T02:58:10.476Z,977.6
2017-01-23T02:58:40.747Z,977.6
2017-01-23T02:59:10.638Z,977.59
2017-01-23T02:59:40.593Z,977.63
2017-01-23T03:00:10.629Z,977.64
2017-01-23T03:00:40.668Z,977.65
2017-01-23T03:01:10.689Z,977.65
2017-01-23T03:01:40.860Z,977.64
2017-01-23T03:02:10.770Z,977.67
2017-01-23T03:02:40.795Z,977.65
2017-01-23T03:03:10.848Z,977.64
2017-01-23T03:03:40.875Z,977.68
2017-01-23T03:04:10.924Z,977.68
2017-01-23T03:04:40.938Z,977.67
2017-01-23T03:05:10.972Z,977.68
2017-01-23T03:05:41.011Z,977.69
2017-01-23T03:06:11.062Z,977.68
2017-01-23T03:06:41.078Z,977.68
2017-01-23T03:07:11.137Z,977.66
2017-01-23T03:07:41.226Z,977.71
2017-01-23T03:08:11.198Z,977.66
2017-01-23T03:08:41.285Z,977.69
2017-01-23T03:09:11.387Z,977.67
2017-01-23T03:09:41.289Z,977.64
2017-01-23T03:10:11.339Z,977.65
2017-01-23T03:10:41.369Z,977.66
2017-01-23T03:11:11.399Z,977.63
2017-01-23T03:11:41.441Z,977.64
2017-01-23T03:12:11.471Z,977.62
2017-01-23T03:12:41.505Z,977.68
2017-01-23T03:13:11.536Z,977.66
2017-01-23T03:13:41.571Z,977.63
2017-01-23T03:14:11.611Z,977.66
2017-01-23T03:14:41.641Z,977.7
2017-01-23T03:15:11.729Z,977.63
2017-01-23T03:15:41.717Z,977.64
2017-01-23T03:16:11.747Z,977.64
2017-01-23T03:16:41.784Z,977.66
2017-01-23T03:17:11.828Z,977.65
2017-01-23T03:17:41.854Z,977.66
2017-01-23T03:18:11.890Z,977.67
2017-01-23T03:18:41.925Z,977.66
2017-01-23T03:19:11.960Z,977.63
2017-01-23T03:19:42.001Z,977.69
2017-01-23T03:20:12.047Z,977.66
2017-01-23T03:20:42.091Z,977.64
2017-01-23T03:21:12.105Z,977.66
2017-01-23T03:21:42.148Z,977.64
2017-01-23T03:22:12.197Z,977.63
2017-01-23T03:22:42.214Z,977.63
2017-01-23T03:23:12.243Z,977.65
2017-01-23T03:23:42.278Z,977.64
2017-01-23T03:24:12.432Z,977.6
2017-01-23T03:24:42.350Z,977.63
2017-01-23T03:25:12.385Z,977.61
2017-01-23T03:25:42.428Z,977.64
2017-01-23T03:26:12.458Z,977.61
2017-01-23T03:26:42.491Z,977.65
2017-01-23T03:27:12.538Z,977.62
2017-01-23T03:27:42.562Z,977.59
2017-01-23T03:28:12.755Z,977.6
2017-01-23T03:28:42.631Z,977.6
2017-01-23T03:29:12.666Z,977.62
2017-01-23T03:29:42.704Z,977.63
2017-01-23T03:30:12.738Z,977.62
2017-01-23T03:30:42.789Z,977.61
2017-01-23T03:31:12.808Z,977.64
2017-01-23T03:31:42.846Z,977.62
2017-01-23T03:32:12.920Z,977.6
2017-01-23T03:32:42.922Z,977.58
2017-01-23T03:33:12.949Z,977.56
2017-01-23T03:33:43.066Z,977.57
2017-01-23T03:34:13.023Z,977.57
2017-01-23T03:34:43.063Z,977.57
2017-01-23T03:35:13.093Z,977.58
2017-01-23T03:35:43.268Z,977.53
2017-01-23T03:36:13.159Z,977.54
2017-01-23T03:36:43.195Z,977.52
2017-01-23T03:37:13.240Z,977.58
2017-01-23T03:37:43.265Z,977.61
2017-01-23T03:38:13.339Z,977.55
2017-01-23T03:38:43.366Z,977.57
2017-01-23T03:39:13.387Z,977.58
2017-01-23T03:39:43.666Z,977.6
2017-01-23T03:40:13.442Z,977.61
2017-01-23T03:40:43.477Z,977.59
2017-01-23T03:41:13.631Z,977.57
2017-01-23T03:41:43.564Z,977.58
2017-01-23T03:42:13.610Z,977.57
2017-01-23T03:42:43.771Z,977.6
2017-01-23T03:43:13.667Z,977.61
2017-01-23T03:43:43.691Z,977.62
2017-01-23T03:44:13.741Z,977.59
2017-01-23T03:44:43.774Z,977.63
2017-01-23T03:45:13.797Z,977.59
2017-01-23T03:45:43.829Z,977.59
2017-01-23T03:46:13.864Z,977.6
2017-01-23T03:46:43.899Z,977.61
2017-01-23T03:47:14.114Z,977.58
2017-01-23T03:47:43.972Z,977.58
2017-01-23T03:48:14.005Z,977.56
2017-01-23T03:48:44.041Z,977.57
2017-01-23T03:49:14.082Z,977.56
2017-01-23T03:49:44.134Z,977.54
2017-01-23T03:50:14.150Z,977.55
2017-01-23T03:50:44.201Z,977.56
2017-01-23T03:51:14.230Z,977.56
2017-01-23T03:51:44.255Z,977.53
2017-01-23T03:52:14.298Z,977.51
2017-01-23T03:52:44.460Z,977.5
2017-01-23T03:53:14.370Z,977.53
2017-01-23T03:53:44.392Z,977.53
2017-01-23T03:54:14.437Z,977.51
2017-01-23T03:54:44.469Z,977.52
2017-01-23T03:55:14.620Z,977.52
2017-01-23T03:55:44.534Z,977.55
2017-01-23T03:56:14.571Z,977.58
2017-01-23T03:56:44.605Z,977.51
2017-01-23T03:57:14.639Z,977.51
2017-01-23T03:57:44.675Z,977.49
2017-01-23T03:58:14.710Z,977.48
2017-01-23T03:58:44.746Z,977.47
2017-01-23T03:59:14.825Z,977.48
2017-01-23T03:59:44.816Z,977.5
2017-01-23T04:00:14.852Z,977.46
2017-01-23T04:00:44.887Z,977.46
2017-01-23T04:01:14.924Z,977.43
2017-01-23T04:01:44.960Z,977.48
2017-01-23T04:02:14.993Z,977.46
2017-01-23T04:02:45.027Z,977.45
2017-01-23T04:03:15.063Z,977.48
2017-01-23T04:03:45.108Z,977.47
2017-01-23T04:04:15.134Z,977.48
2017-01-23T04:04:45.174Z,977.49
2017-01-23T04:05:15.207Z,977.46
2017-01-23T04:05:45.240Z,977.48
2017-01-23T04:06:15.280Z,977.46
2017-01-23T04:06:45.311Z,977.44
2017-01-23T04:07:15.345Z,977.45
2017-01-23T04:07:45.384Z,977.47
2017-01-23T04:08:15.420Z,977.41
2017-01-23T04:08:45.453Z,977.45
2017-01-23T04:09:15.487Z,977.44
2017-01-23T04:09:45.636Z,977.44
2017-01-23T04:10:15.560Z,977.46
2017-01-23T04:10:45.595Z,977.42
2017-01-23T04:11:15.630Z,977.42
2017-01-23T04:11:45.665Z,977.48
2017-01-23T04:12:15.701Z,977.43
2017-01-23T04:12:45.738Z,977.47
2017-01-23T04:13:15.775Z,977.44
2017-01-23T04:13:45.807Z,977.46
2017-01-23T04:14:15.843Z,977.43
2017-01-23T04:14:45.879Z,977.41
2017-01-23T04:15:15.939Z,977.44
2017-01-23T04:15:45.948Z,977.44
2017-01-23T04:16:15.985Z,977.44
2017-01-23T04:16:46.020Z,977.41
2017-01-23T04:17:16.056Z,977.41
2017-01-23T04:17:46.092Z,977.4
2017-01-23T04:18:16.131Z,977.39
2017-01-23T04:18:46.166Z,977.39
2017-01-23T04:19:16.197Z,977.38
2017-01-23T04:19:46.233Z,977.38
2017-01-23T04:20:16.372Z,977.41
2017-01-23T04:20:46.308Z,977.39
2017-01-23T04:21:16.339Z,977.38
2017-01-23T04:21:46.376Z,977.37
2017-01-23T04:22:16.432Z,977.37
2017-01-23T04:22:46.445Z,977.36
2017-01-23T04:23:16.487Z,977.37
2017-01-23T04:23:46.517Z,977.4
2017-01-23T04:24:16.552Z,977.38
2017-01-23T04:24:46.590Z,977.36
2017-01-23T04:25:16.623Z,977.38
2017-01-23T04:25:46.690Z,977.39
2017-01-23T04:26:16.695Z,977.39
2017-01-23T04:26:46.803Z,977.42
2017-01-23T04:27:16.781Z,977.41
2017-01-23T04:27:46.803Z,977.39
2017-01-23T04:28:16.837Z,977.42
2017-01-23T04:28:46.873Z,977.42
2017-01-23T04:29:16.908Z,977.41
2017-01-23T04:29:46.943Z,977.43
2017-01-23T04:30:16.978Z,977.4
2017-01-23T04:30:47.030Z,977.42
2017-01-23T04:31:17.051Z,977.4
2017-01-23T04:31:47.086Z,977.43
2017-01-23T04:32:17.124Z,977.43
2017-01-23T04:32:47.156Z,977.43
2017-01-23T04:33:17.218Z,977.4
2017-01-23T04:33:47.228Z,977.42
2017-01-23T04:34:17.272Z,977.44
2017-01-23T04:34:47.349Z,977.44
2017-01-23T04:35:17.334Z,977.45
2017-01-23T04:35:47.372Z,977.44
2017-01-23T04:36:17.408Z,977.47
2017-01-23T04:36:47.445Z,977.48
2017-01-23T04:37:17.478Z,977.44
2017-01-23T04:37:47.519Z,977.46
2017-01-23T04:38:17.548Z,977.43
2017-01-23T04:38:47.584Z,977.43
2017-01-23T04:39:17.619Z,977.46
2017-01-23T04:39:47.655Z,977.46
2017-01-23T04:40:17.691Z,977.42
2017-01-23T04:40:47.727Z,977.43
2017-01-23T04:41:17.763Z,977.41
2017-01-23T04:41:51.273Z,977.4
2017-01-23T04:42:19.236Z,977.39
2017-01-23T04:43:18.466Z,977.45
2017-01-23T04:43:47.940Z,977.46
2017-01-23T04:44:22.622Z,977.45
2017-01-23T04:44:48.086Z,977.43
2017-01-23T04:45:22.186Z,977.44
2017-01-23T04:45:48.143Z,977.45
2017-01-23T04:46:18.155Z,977.45
2017-01-23T04:46:48.156Z,977.43
2017-01-23T04:47:18.226Z,977.48
2017-01-23T04:47:48.682Z,977.45
2017-01-23T04:48:18.483Z,977.48
2017-01-23T04:48:48.668Z,977.48
2017-01-23T04:49:18.336Z,977.44
2017-01-23T04:49:48.391Z,977.46
2017-01-23T04:50:18.516Z,977.43
2017-01-23T04:50:51.746Z,977.44
2017-01-23T04:51:21.782Z,977.46
2017-01-23T04:51:48.642Z,977.48
2017-01-23T04:52:18.583Z,977.45
2017-01-23T04:52:48.581Z,977.5
2017-01-23T04:53:18.616Z,977.49
2017-01-23T04:53:48.653Z,977.54
2017-01-23T04:54:18.692Z,977.51
2017-01-23T04:54:48.724Z,977.53
2017-01-23T04:55:18.760Z,977.55
2017-01-23T04:55:48.797Z,977.53
2017-01-23T04:56:18.831Z,977.51
2017-01-23T04:56:48.867Z,977.56
2017-01-23T04:57:18.902Z,977.55
2017-01-23T04:57:48.956Z,977.54
2017-01-23T04:58:18.976Z,977.51
2017-01-23T04:58:49.011Z,977.51
2017-01-23T04:59:19.046Z,977.53
2017-01-23T04:59:49.083Z,977.55
2017-01-23T05:00:19.118Z,977.55
2017-01-23T05:00:49.154Z,977.55
2017-01-23T05:01:19.190Z,977.58
2017-01-23T05:01:49.226Z,977.55
2017-01-23T05:02:19.260Z,977.55
2017-01-23T05:02:49.298Z,977.51
2017-01-23T05:03:19.331Z,977.55
2017-01-23T05:03:49.369Z,977.53
2017-01-23T05:04:19.404Z,977.58
2017-01-23T05:04:49.441Z,977.54
2017-01-23T05:05:19.477Z,977.53
2017-01-23T05:05:49.511Z,977.51
2017-01-23T05:06:19.546Z,977.5
2017-01-23T05:06:49.582Z,977.53
2017-01-23T05:07:19.619Z,977.51
2017-01-23T05:07:49.655Z,977.48
2017-01-23T05:08:19.689Z,977.5
2017-01-23T05:08:49.725Z,977.47
2017-01-23T05:09:19.761Z,977.49
2017-01-23T05:09:49.797Z,977.43
2017-01-23T05:10:19.854Z,977.43
2017-01-23T05:10:49.868Z,977.42
2017-01-23T05:11:19.905Z,977.45
2017-01-23T05:11:49.941Z,977.43
2017-01-23T05:12:19.974Z,977.44
2017-01-23T05:12:50.010Z,977.42
2017-01-23T05:13:20.045Z,977.42
2017-01-23T05:13:50.082Z,977.44
2017-01-23T05:14:20.119Z,977.46
2017-01-23T05:14:50.155Z,977.47
2017-01-23T05:15:20.189Z,977.46
2017-01-23T05:15:50.226Z,977.45
2017-01-23T05:16:20.261Z,977.5
2017-01-23T05:16:50.297Z,977.46
2017-01-23T05:17:20.333Z,977.46
2017-01-23T05:17:50.368Z,977.47
2017-01-23T05:18:20.405Z,977.48
2017-01-23T05:18:50.441Z,977.5
2017-01-23T05:19:20.475Z,977.44
2017-01-23T05:19:50.512Z,977.46
2017-01-23T05:20:20.549Z,977.48
2017-01-23T05:20:50.583Z,977.46
2017-01-23T05:21:20.618Z,977.46
2017-01-23T05:21:50.660Z,977.45
2017-01-23T05:22:20.691Z,977.45
2017-01-23T05:22:50.735Z,977.49
2017-01-23T05:23:20.762Z,977.45
2017-01-23T05:23:50.797Z,977.47
2017-01-23T05:24:20.835Z,977.46
2017-01-23T05:24:50.870Z,977.44
2017-01-23T05:25:20.907Z,977.45
2017-01-23T05:25:50.942Z,977.45
2017-01-23T05:26:20.978Z,977.46
2017-01-23T05:26:51.013Z,977.5
2017-01-23T05:27:21.050Z,977.49
2017-01-23T05:27:51.087Z,977.47
2017-01-23T05:28:21.129Z,977.48
2017-01-23T05:28:51.158Z,977.48
2017-01-23T05:29:21.195Z,977.51
2017-01-23T05:29:51.229Z,977.51
2017-01-23T05:30:21.267Z,977.5
2017-01-23T05:30:51.299Z,977.48
2017-01-23T05:31:21.336Z,977.5
2017-01-23T05:31:51.372Z,977.54
2017-01-23T05:32:21.407Z,977.53
2017-01-23T05:32:51.444Z,977.53
2017-01-23T05:33:21.478Z,977.52
2017-01-23T05:33:51.514Z,977.54
2017-01-23T05:34:21.551Z,977.58
2017-01-23T05:34:51.586Z,977.58
2017-01-23T05:35:21.623Z,977.57
2017-01-23T05:35:51.658Z,977.56
2017-01-23T05:36:21.693Z,977.58
2017-01-23T05:36:51.730Z,977.56
2017-01-23T05:37:21.767Z,977.57
2017-01-23T05:37:51.801Z,977.57
2017-01-23T05:38:21.840Z,977.58
2017-01-23T05:38:51.874Z,977.55
2017-01-23T05:39:21.909Z,977.58
2017-01-23T05:39:51.944Z,977.58
2017-01-23T05:40:21.982Z,977.56
2017-01-23T05:40:52.017Z,977.58
2017-01-23T05:41:22.053Z,977.55
2017-01-23T05:41:52.090Z,977.57
2017-01-23T05:42:22.125Z,977.58
2017-01-23T05:42:52.159Z,977.58
2017-01-23T05:43:22.196Z,977.58
2017-01-23T05:43:52.231Z,977.6
2017-01-23T05:44:22.267Z,977.59
2017-01-23T05:44:52.304Z,977.61
2017-01-23T05:45:22.354Z,977.61
2017-01-23T05:45:52.375Z,977.64
2017-01-23T05:46:22.413Z,977.65
2017-01-23T05:46:52.448Z,977.63
2017-01-23T05:47:22.486Z,977.63
2017-01-23T05:47:52.520Z,977.66
2017-01-23T05:48:22.556Z,977.68
2017-01-23T05:48:52.592Z,977.63
2017-01-23T05:49:22.626Z,977.66
2017-01-23T05:49:52.664Z,977.63
2017-01-23T05:50:22.700Z,977.67
2017-01-23T05:50:52.735Z,977.7
2017-01-23T05:51:22.771Z,977.68
2017-01-23T05:51:52.808Z,977.71
2017-01-23T05:52:22.845Z,977.71
2017-01-23T05:52:52.880Z,977.72
2017-01-23T05:53:22.935Z,977.75
2017-01-23T05:53:52.951Z,977.74
2017-01-23T05:54:22.988Z,977.72
2017-01-23T05:54:53.025Z,977.71
2017-01-23T05:55:23.058Z,977.72
2017-01-23T05:55:53.095Z,977.75
2017-01-23T05:56:23.132Z,977.73
2017-01-23T05:56:53.167Z,977.71
2017-01-23T05:57:23.203Z,977.72
2017-01-23T05:57:53.239Z,977.75
2017-01-23T05:58:23.275Z,977.73
2017-01-23T05:58:53.312Z,977.74
2017-01-23T05:59:23.346Z,977.72
2017-01-23T05:59:53.381Z,977.7
2017-01-23T06:00:23.417Z,977.73
2017-01-23T06:00:53.453Z,977.73
2017-01-23T06:01:23.489Z,977.68
2017-01-23T06:01:53.530Z,977.68
2017-01-23T06:02:23.562Z,977.69
2017-01-23T06:02:53.601Z,977.71
2017-01-23T06:03:23.638Z,977.73
2017-01-23T06:03:53.671Z,977.71
2017-01-23T06:04:23.705Z,977.72
2017-01-23T06:04:53.743Z,977.69
2017-01-23T06:05:23.779Z,977.74
2017-01-23T06:05:53.814Z,977.75
2017-01-23T06:06:23.850Z,977.73
2017-01-23T06:06:53.885Z,977.75
2017-01-23T06:07:23.935Z,977.76
2017-01-23T06:07:53.957Z,977.77
2017-01-23T06:08:23.995Z,977.73
2017-01-23T06:08:54.029Z,977.77
2017-01-23T06:09:24.065Z,977.78
2017-01-23T06:09:54.101Z,977.78
2017-01-23T06:10:24.139Z,977.79
2017-01-23T06:10:54.174Z,977.75
2017-01-23T06:11:24.214Z,977.78
2017-01-23T06:11:54.247Z,977.77
2017-01-23T06:12:24.281Z,977.76
2017-01-23T06:12:54.317Z,977.78
2017-01-23T06:13:24.354Z,977.81
2017-01-23T06:13:54.391Z,977.78
2017-01-23T06:14:24.425Z,977.79
2017-01-23T06:14:54.463Z,977.79
2017-01-23T06:15:24.498Z,977.78
2017-01-23T06:15:54.536Z,977.79
2017-01-23T06:16:24.569Z,977.77